Portersville, Indiana
Current Conditions -  °F | °C
As of 3:35 AM on Friday 24 Oct 2014 (Local Time) from KHNB Reporting Station
Overcast Overcast  
Wind Chill: 41°   Ceiling: 200
Heat Index: 41°   Visibility: 0.25mi
Dew Point: 37°   Wind: 0mph
Humidity: 87%   Direction: NA
Pressure: 30.12"   Gusts: NA
Location:  38.4175°N, 86.9656°W
Report Text: KHNB 240835Z AUTO 00000KT 1/4SM VV002 05/03 A3012 RMK AO1
Loading
Personal Weather Stations






























Interactive Weather Map
Tropical Storm Tracking
New forecast layout! Learn more

10-Day Weather Forecast

Advertisements
Track Severe Weather on mobile